• Join FlightAware (Why Join?)
  • Login
  • US Flag 
12:10PM EDT


 

Airport Tracker/Info


-or-


 

Live Flight TrackerFlight Track Log ✈ UAL4422 ✈ 20-Apr-2013 ✈ KCLE - KPBI

Flight Track Log - Related Links

Times and Time Zones

All times are in EDT time to prevent confusion due to time zone crossing. See the UAL4422 flight status page for this flight to view local times or setup timezone preferences in your user account.

Time Position Orientation Groundspeed Altitude Reporting Facility
EDT Latitude Longitude Course Direction KTS MPH feet Rate Location/Type
09:12AM 41.3897 -81.8811 196° South 153 176 1,700  Level Cleveland Center
09:12AM 41.3625 -81.8917 196° South 176 203 2,800 2,040 Climbing Cleveland Center
09:13AM 41.2914 -81.9150 194° South 247 284 5,300 2,460 Climbing Cleveland Center
09:14AM 41.2264 -81.9358 194° South 255 293 8,100 2,520 Climbing Cleveland Center
09:15AM 41.1556 -81.9536 191° South 255 293 10,400 1,740 Climbing Cleveland Center
09:16AM 41.0778 -81.9906 200° South 285 328 11,600 1,080 Climbing Cleveland Center
09:17AM 40.9958 -82.0439 206° Southwest 314 361 12,600 1,200 Climbing Cleveland Center
09:18AM 40.9117 -82.1025 208° Southwest 338 389 14,100 1,740 Climbing Cleveland Center
09:20AM 40.7425 -82.2092 206° Southwest 327 376 17,900 1,740 Climbing Indianapolis Center
09:21AM 40.6608 -82.2628 206° Southwest 326 375 19,500 1,560 Climbing Indianapolis Center
09:22AM 40.5781 -82.3156 206° Southwest 326 375 21,100 1,560 Climbing Indianapolis Center
09:23AM 40.4975 -82.3683 206° Southwest 323 372 22,700 1,560 Climbing Indianapolis Center
09:24AM 40.4167 -82.4197 206° Southwest 321 369 24,300 1,560 Climbing Indianapolis Center
09:25AM 40.3383 -82.4706 206° Southwest 313 360 25,900 1,560 Climbing Indianapolis Center
09:26AM 40.2606 -82.5189 205° Southwest 305 351 27,500 1,500 Climbing Indianapolis Center
09:27AM 40.1819 -82.5700 206° Southwest 292 336 29,000 1,260 Climbing Indianapolis Center
09:28AM 40.0997 -82.5936 192° South 304 350 30,100 1,020 Climbing Indianapolis Center
09:30AM 40.0100 -82.5986 182° South 317 365 31,100 960 Climbing Indianapolis Center
09:31AM 39.9183 -82.6039 183° South 323 372 32,100 1,020 Climbing Indianapolis Center
09:32AM 39.8261 -82.6114 184° South 327 376 33,200 840 Climbing Indianapolis Center
09:33AM 39.7356 -82.6158 182° South 323 372 33,900 540 Climbing Indianapolis Center
09:34AM 39.6417 -82.6231 183° South 332 382 34,400 720 Climbing Indianapolis Center
09:35AM 39.5467 -82.6303 183° South 336 387 35,400 780 Climbing Indianapolis Center
09:36AM 39.4558 -82.6344 182° South 324 373 36,000 240 Climbing Indianapolis Center
09:37AM 39.3597 -82.6419 183° South 338 389 36,000  Level Indianapolis Center
09:38AM 39.2603 -82.6475 182° South 351 404 36,000  Level Indianapolis Center
09:39AM 39.1469 -82.6547 183° South 361 415 36,000  Level Indianapolis Center
09:40AM 39.0411 -82.6622 183° South 377 434 36,000  Level Indianapolis Center
09:41AM 38.9331 -82.6694 183° South 386 444 36,000  Level Indianapolis Center
09:42AM 38.8244 -82.6764 183° South 392 451 36,000  Level Indianapolis Center
09:43AM 38.7164 -82.6839 183° South 391 450 36,000  Level Indianapolis Center
09:44AM 38.5950 -82.6911 183° South 387 445 36,000  Level Indianapolis Center
09:45AM 38.4881 -82.6989 183° South 384 442 36,000  Level Indianapolis Center
09:46AM 38.3806 -82.7053 183° South 385 443 36,000  Level Indianapolis Center
09:47AM 38.2731 -82.7144 184° South 385 443 36,000  Level Indianapolis Center
09:48AM 38.1653 -82.7189 182° South 385 443 36,000  Level Indianapolis Center
09:49AM 38.0411 -82.7297 184° South 382 440 36,000  Level Indianapolis Center
09:50AM 37.9331 -82.7369 183° South 385 443 36,000  Level Indianapolis Center
09:51AM 37.8247 -82.7428 182° South 388 447 36,000  Level Indianapolis Center
09:52AM 37.7167 -82.7544 185° South 388 447 36,000  Level Indianapolis Center
09:53AM 37.6161 -82.7936 197° South 379 436 36,000  Level Indianapolis Center
09:54AM 37.5233 -82.8547 208° Southwest 376 433 36,000  Level Indianapolis Center
09:55AM 37.4156 -82.9256 208° Southwest 375 432 36,000  Level Indianapolis Center
09:56AM 37.3225 -82.9861 207° Southwest 377 434 36,000  Level Indianapolis Center
09:57AM 37.2289 -83.0472 207° Southwest 379 436 36,000  Level Indianapolis Center
09:58AM 37.1356 -83.1078 207° Southwest 381 438 36,000  Level Indianapolis Center
09:59AM 37.0425 -83.1694 208° Southwest 381 438 36,000  Level Indianapolis Center
10:00AM 36.9486 -83.2294 207° Southwest 381 438 36,000  Level Indianapolis Center
10:01AM 36.8394 -83.2997 207° Southwest 381 438 36,000  Level Indianapolis Center
10:02AM 36.7447 -83.3608 207° Southwest 383 441 36,000  Level Indianapolis Center
10:03AM 36.6508 -83.4222 208° Southwest 381 438 36,000  Level Indianapolis Center
10:04AM 36.5561 -83.4819 207° Southwest 383 441 36,000  Level Indianapolis Center
10:05AM 36.4589 -83.5442 207° Southwest 380 437 36,000  Level Indianapolis Center
10:06AM 36.3531 -83.5675 190° South 394 453 36,000  Level Indianapolis Center
10:08AM 36.2369 -83.5611 177° South 410 472 36,000  Level Indianapolis Center
10:09AM 36.1011 -83.5556 178° South 405 466 36,000  Level Atlanta Center
10:10AM 35.9886 -83.5511 178° South 405 466 36,000  Level Atlanta Center
10:11AM 35.8758 -83.5417 176° South 405 466 36,000  Level Atlanta Center
10:12AM 35.7653 -83.5372 178° South 405 466 36,000  Level Atlanta Center
10:13AM 35.6525 -83.5328 178° South 405 466 36,000  Level Atlanta Center
10:14AM 35.5419 -83.5258 177° South 405 466 36,000  Level Atlanta Center
10:15AM 35.4272 -83.5189 177° South 405 466 36,000  Level Atlanta Center
10:16AM 35.3186 -83.5144 178° South 405 466 36,000  Level Atlanta Center
10:17AM 35.2081 -83.5075 177° South 405 466 36,000  Level Atlanta Center
10:18AM 35.1058 -83.5031 178° South 405 466 36,000  Level Atlanta Center
10:19AM 34.9994 -83.4936 176° South 400 460 36,000  Level Atlanta Center
10:20AM 34.8908 -83.4892 178° South 400 460 36,000  Level Atlanta Center
10:21AM 34.7803 -83.4875 179° South 400 460 36,000  Level Atlanta Center
10:22AM 34.6758 -83.4781 176° South 395 455 36,000  Level Atlanta Center
10:23AM 34.5736 -83.4711 177° South 375 432 36,000  Level Atlanta Center
10:24AM 34.4692 -83.4669 178° South 375 432 36,000  Level Atlanta Center
10:25AM 34.3606 -83.4600 177° South 375 432 36,000  Level Atlanta Center
10:26AM 34.2500 -83.4558 178° South 375 432 36,000  Level Atlanta Center
10:27AM 34.1456 -83.4514 178° South 380 437 36,000  Level Atlanta Center
10:28AM 34.0392 -83.4447 177° South 385 443 36,000  Level Atlanta Center
10:29AM 33.9347 -83.4378 177° South 385 443 36,000  Level Atlanta Center
10:30AM 33.8325 -83.4336 178° South 375 432 36,000  Level Atlanta Center
10:31AM 33.7281 -83.4269 177° South 375 432 36,000  Level Atlanta Center
10:32AM 33.6278 -83.4225 178° South 368 423 36,000  Level Atlanta Center
10:33AM 33.5381 -83.4183 178° South 362 417 36,000  Level Atlanta Center
10:34AM 33.4378 -83.4139 178° South 362 417 36,000  Level Atlanta Center
10:35AM 33.3375 -83.4072 177° South 362 417 36,000  Level Atlanta Center
10:36AM 33.2375 -83.4031 178° South 362 417 36,000  Level Atlanta Center
10:37AM 33.1414 -83.3986 178° South 362 417 36,000  Level Atlanta Center
10:38AM 33.0328 -83.3947 178° South 357 411 36,000  Level Atlanta Center
10:39AM 32.9347 -83.3903 178° South 357 411 36,000 360 Level Atlanta Center
10:40AM 32.8364 -83.3836 177° South 357 411 36,800 480 Climbing Atlanta Center
10:41AM 32.7406 -83.3794 178° South 352 405 37,000 60 Climbing Atlanta Center
10:42AM 32.6403 -83.3728 177° South 352 405 37,000  Level Atlanta Center
10:43AM 32.5381 -83.3711 179° South 357 411 37,000  Level Atlanta Center
10:44AM 32.4378 -83.3644 177° South 362 417 37,000  Level Atlanta Center
10:44AM 32.3597 -83.3575 176° South 368 423 37,000  Level Jacksonville Center
10:45AM 32.2556 -83.3544 179° South 362 417 37,000  Level Jacksonville Center
10:46AM 32.1386 -83.3464 177° South 374 430 37,000  Level Jacksonville Center
10:47AM 32.0300 -83.3411 178° South 379 436 37,000  Level Jacksonville Center
10:48AM 31.9236 -83.3356 177° South 384 442 37,000  Level Jacksonville Center
10:49AM 31.8172 -83.3303 178° South 384 442 37,000  Level Jacksonville Center
10:50AM 31.7106 -83.3247 177° South 384 442 37,000  Level Jacksonville Center
10:51AM 31.6022 -83.3219 179° South 384 442 37,000  Level Jacksonville Center
10:52AM 31.4956 -83.3142 176° South 384 442 37,000  Level Jacksonville Center
10:53AM 31.3869 -83.3111 179° South 384 442 37,000  Level Jacksonville Center
10:54AM 31.2806 -83.2817 167° South 384 442 37,000  Level Jacksonville Center
10:55AM 31.1722 -83.2397 162° South 394 453 37,000  Level Jacksonville Center
10:56AM 31.0658 -83.1981 161° South 399 459 37,000  Level Jacksonville Center
10:57AM 30.9553 -83.1567 162° South 406 467 37,000  Level Jacksonville Center
10:58AM 30.8467 -83.1128 161° South 406 467 37,000  Level Jacksonville Center
10:59AM 30.7403 -83.0714 162° South 406 467 37,000  Level Jacksonville Center
11:00AM 30.6319 -83.0278 161° South 406 467 37,000  Level Jacksonville Center
11:01AM 30.5211 -82.9842 161° South 411 473 37,000  Level Jacksonville Center
11:02AM 30.4106 -82.9431 162° South 411 473 37,000  Level Jacksonville Center
11:03AM 30.3000 -82.9022 162° South 411 473 37,000  Level Jacksonville Center
11:04AM 30.1914 -82.8589 161° South 421 484 37,000  Level Jacksonville Center
11:05AM 30.0892 -82.8206 162° South 421 484 37,000  Level Jacksonville Center
11:06AM 29.9742 -82.7822 164° South 426 490 37,000  Level Jacksonville Center
11:07AM 29.8636 -82.7369 160° South 426 490 37,000  Level Jacksonville Center
11:08AM 29.7486 -82.6964 163° South 426 490 37,000  Level Jacksonville Center
11:09AM 29.6358 -82.6536 162° South 426 490 37,000  Level Jacksonville Center
11:10AM 29.5189 -82.6061 161° South 426 490 37,000  Level Jacksonville Center
11:11AM 29.4039 -82.5614 161° South 436 502 37,000  Level Jacksonville Center
11:12AM 29.2911 -82.5211 163° South 436 502 37,000  Level Jacksonville Center
11:13AM 29.1822 -82.4786 161° South 429 494 37,000  Level Jacksonville Center
11:14AM 29.0758 -82.4458 165° South 419 482 37,000  Level Jacksonville Center
11:15AM 28.9692 -82.4297 172° South 401 461 37,000  Level Jacksonville Center
11:16AM 28.8606 -82.4161 174° South 394 453 37,000  Level Jacksonville Center
11:17AM 28.7542 -82.4022 173° South 388 447 37,000  Level Jacksonville Center
11:18AM 28.6331 -82.3886 174° South 388 447 37,000  Level Jacksonville Center
11:19AM 28.5203 -82.3728 173° South 399 459 37,000  Level Jacksonville Center
11:20AM 28.4033 -82.3592 174° South 413 475 37,000 -360 Level Jacksonville Center
11:21AM 28.2886 -82.3433 173° South 418 481 36,400 -600 Descending Jacksonville Center
11:24AM 28.0200 -82.3058 173° South 437 503 35,000 -420 Descending Miami Center
11:25AM 27.9089 -82.2675 163° South 437 503 35,000 -240 Level Miami Center
11:26AM 27.7811 -82.2217 162° South 432 497 34,600 -660 Descending Miami Center
11:27AM 27.6636 -82.1808 163° South 444 511 33,700 -900 Descending Miami Center
11:28AM 27.5525 -82.1406 162° South 434 499 32,900 -1,080 Descending Miami Center
11:29AM 27.4494 -82.1078 164° South 426 490 31,600 -1,500 Descending Miami Center
11:30AM 27.3194 -82.0622 163° South 435 501 29,900 -1,620 Descending Miami Center
11:31AM 27.2019 -82.0219 163° South 441 507 28,400 -1,500 Descending Miami Center
11:32AM 27.0844 -81.9839 164° South 447 514 27,000 -1,500 Descending Miami Center
11:33AM 26.9792 -81.9514 165° South 442 509 25,500 -1,500 Descending Miami Center
11:34AM 26.8728 -81.8864 151° Southeast 436 502 24,000 -1,440 Descending Miami Center
11:35AM 26.7864 -81.7942 136° Southeast 427 491 22,700 -1,860 Descending Miami Center
11:36AM 26.7122 -81.7003 131° Southeast 407 468 20,300 -1,800 Descending Miami Center
11:37AM 26.7019 -81.5650 95° East 368 423 19,100 -660 Descending Miami Center
11:38AM 26.7325 -81.4572 72° East 379 436 19,000 -600 Descending Miami Center
11:39AM 26.7617 -81.3328 75° East 409 471 18,000 -2,100 Descending Miami Center
11:40AM 26.7906 -81.2011 76° East 397 457 14,900 -3,120 Descending Miami Center
11:41AM 26.8169 -81.0858 76° East 385 443 11,800 -2,400 Descending Miami Center
11:42AM 26.8281 -80.9861 83° East 369 425 10,100 -900 Descending Miami Center
11:43AM 26.8372 -80.8842 84° East 334 384 10,000 -60 Descending Miami Center
11:44AM 26.8128 -80.7856 106° East 306 352 10,000 -300 Level Miami Center
11:45AM 26.7819 -80.6961 111° Southeast 301 346 9,400 -1,200 Descending Miami Center
11:46AM 26.7483 -80.6158 115° Southeast 295 339 7,600 -1,740 Descending Miami Center
11:47AM 26.7211 -80.5406 112° Southeast 272 313 6,000 -1,800 Descending Miami Center
11:48AM 26.7000 -80.4656 107° East 254 292 4,000 -1,500 Descending Miami Center
11:49AM 26.6936 -80.3886 95° East 242 278 3,000 -540 Descending Miami Center
11:50AM 26.6908 -80.3233 93° East 237 273 3,000 -300 Level Miami Center
11:51AM 26.6864 -80.2467 94° East 231 266 2,400 -840 Descending Miami Center
11:52AM 26.6836 -80.1883 93° East 224 258 1,400 -1,020 Descending Miami Center
11:54AM 26.6832 -80.0956 50° Northeast  Level Estimated
12:01PM 26.6832 -80.0956 50° Northeast  Level Estimated
12:02PM 26.6832 -80.0956 50° Northeast  Level Estimated